sensor_id;sensor_type;location;lat;lon;timestamp;pressure;altitude;pressure_sealevel;temperature;humidity
57708;BME280;43540;51.690;9.562;2023-06-01T00:02:15;99784.25;;;13.81;100.00
57708;BME280;43540;51.690;9.562;2023-06-01T00:04:42;99788.06;;;13.67;100.00
57708;BME280;43540;51.690;9.562;2023-06-01T00:07:09;99782.47;;;13.51;100.00
57708;BME280;43540;51.690;9.562;2023-06-01T00:09:37;99786.13;;;13.19;100.00
57708;BME280;43540;51.690;9.562;2023-06-01T00:12:04;99786.16;;;13.29;100.00
57708;BME280;43540;51.690;9.562;2023-06-01T00:14:32;99784.94;;;13.43;100.00
57708;BME280;43540;51.690;9.562;2023-06-01T00:16:59;99788.06;;;13.57;100.00
57708;BME280;43540;51.690;9.562;2023-06-01T00:19:26;99789.56;;;13.60;100.00
57708;BME280;43540;51.690;9.562;2023-06-01T00:21:54;99789.84;;;13.57;100.00
57708;BME280;43540;51.690;9.562;2023-06-01T00:24:22;99788.84;;;13.48;100.00
57708;BME280;43540;51.690;9.562;2023-06-01T00:26:49;99781.66;;;13.50;100.00
57708;BME280;43540;51.690;9.562;2023-06-01T00:29:15;99786.50;;;13.45;100.00
57708;BME280;43540;51.690;9.562;2023-06-01T00:31:42;99788.13;;;13.36;100.00
57708;BME280;43540;51.690;9.562;2023-06-01T00:34:09;99790.16;;;13.23;100.00
57708;BME280;43540;51.690;9.562;2023-06-01T00:36:36;99788.63;;;13.21;100.00
57708;BME280;43540;51.690;9.562;2023-06-01T00:39:02;99791.50;;;13.18;100.00
57708;BME280;43540;51.690;9.562;2023-06-01T00:41:31;99786.00;;;13.21;100.00
57708;BME280;43540;51.690;9.562;2023-06-01T00:43:58;99776.09;;;12.82;100.00
57708;BME280;43540;51.690;9.562;2023-06-01T00:46:26;99782.06;;;12.64;100.00
57708;BME280;43540;51.690;9.562;2023-06-01T00:48:53;99776.47;;;12.57;100.00
57708;BME280;43540;51.690;9.562;2023-06-01T00:51:20;99778.78;;;12.71;100.00
57708;BME280;43540;51.690;9.562;2023-06-01T00:53:49;99753.75;;;12.77;100.00
57708;BME280;43540;51.690;9.562;2023-06-01T00:56:17;99768.31;;;12.81;100.00
57708;BME280;43540;51.690;9.562;2023-06-01T00:58:44;99757.47;;;12.74;100.00
57708;BME280;43540;51.690;9.562;2023-06-01T01:01:11;99746.91;;;12.44;100.00
57708;BME280;43540;51.690;9.562;2023-06-01T01:03:55;99760.84;;;12.35;100.00
57708;BME280;43540;51.690;9.562;2023-06-01T01:06:34;99765.22;;;12.34;100.00
57708;BME280;43540;51.690;9.562;2023-06-01T01:11:57;99766.66;;;12.17;100.00
57708;BME280;43540;51.690;9.562;2023-06-01T01:17:22;99773.22;;;12.12;100.00
57708;BME280;43540;51.690;9.562;2023-06-01T01:19:59;99769.97;;;11.87;100.00
57708;BME280;43540;51.690;9.562;2023-06-01T01:30:24;99785.63;;;12.21;100.00
57708;BME280;43540;51.690;9.562;2023-06-01T01:32:53;99779.44;;;12.11;100.00
57708;BME280;43540;51.690;9.562;2023-06-01T01:35:26;99779.81;;;12.06;100.00
57708;BME280;43540;51.690;9.562;2023-06-01T01:37:53;99772.97;;;12.15;100.00
57708;BME280;43540;51.690;9.562;2023-06-01T01:40:21;99772.47;;;12.21;100.00
57708;BME280;43540;51.690;9.562;2023-06-01T01:42:48;99769.97;;;12.19;100.00
57708;BME280;43540;51.690;9.562;2023-06-01T01:45:17;99774.75;;;12.14;100.00
57708;BME280;43540;51.690;9.562;2023-06-01T01:47:54;99777.19;;;12.06;100.00
57708;BME280;43540;51.690;9.562;2023-06-01T01:50:28;99769.06;;;12.09;100.00
57708;BME280;43540;51.690;9.562;2023-06-01T01:52:56;99771.63;;;11.88;100.00
57708;BME280;43540;51.690;9.562;2023-06-01T01:55:24;99771.03;;;11.85;100.00
57708;BME280;43540;51.690;9.562;2023-06-01T01:57:54;99774.25;;;11.88;100.00
57708;BME280;43540;51.690;9.562;2023-06-01T02:00:22;99769.25;;;11.74;100.00
57708;BME280;43540;51.690;9.562;2023-06-01T02:02:49;99761.19;;;11.55;100.00
57708;BME280;43540;51.690;9.562;2023-06-01T02:05:15;99760.34;;;11.54;100.00
57708;BME280;43540;51.690;9.562;2023-06-01T02:07:42;99764.78;;;11.54;100.00
57708;BME280;43540;51.690;9.562;2023-06-01T02:10:10;99761.72;;;11.69;100.00
57708;BME280;43540;51.690;9.562;2023-06-01T02:12:37;99765.09;;;11.72;100.00
57708;BME280;43540;51.690;9.562;2023-06-01T02:15:05;99763.03;;;11.86;100.00
57708;BME280;43540;51.690;9.562;2023-06-01T02:17:32;99761.06;;;11.56;100.00
57708;BME280;43540;51.690;9.562;2023-06-01T02:19:59;99754.94;;;11.67;100.00
57708;BME280;43540;51.690;9.562;2023-06-01T02:22:26;99760.16;;;11.78;100.00
57708;BME280;43540;51.690;9.562;2023-06-01T02:24:52;99754.91;;;11.78;100.00
57708;BME280;43540;51.690;9.562;2023-06-01T02:27:19;99757.22;;;11.83;100.00
57708;BME280;43540;51.690;9.562;2023-06-01T02:29:46;99752.66;;;11.74;100.00
57708;BME280;43540;51.690;9.562;2023-06-01T02:32:12;99752.22;;;11.57;100.00
57708;BME280;43540;51.690;9.562;2023-06-01T02:34:39;99753.94;;;11.36;100.00
57708;BME280;43540;51.690;9.562;2023-06-01T02:37:06;99758.47;;;11.45;100.00
57708;BME280;43540;51.690;9.562;2023-06-01T02:39:32;99751.94;;;11.17;100.00
57708;BME280;43540;51.690;9.562;2023-06-01T02:41:59;99756.22;;;11.29;100.00
57708;BME280;43540;51.690;9.562;2023-06-01T02:44:26;99745.44;;;11.32;100.00
57708;BME280;43540;51.690;9.562;2023-06-01T02:46:53;99756.59;;;11.25;100.00
57708;BME280;43540;51.690;9.562;2023-06-01T02:49:20;99760.03;;;11.36;100.00
57708;BME280;43540;51.690;9.562;2023-06-01T02:51:46;99753.69;;;11.39;100.00
57708;BME280;43540;51.690;9.562;2023-06-01T02:54:13;99759.28;;;11.46;100.00
57708;BME280;43540;51.690;9.562;2023-06-01T02:56:39;99766.13;;;11.26;100.00
57708;BME280;43540;51.690;9.562;2023-06-01T02:59:06;99750.13;;;11.29;100.00
57708;BME280;43540;51.690;9.562;2023-06-01T03:01:32;99751.66;;;11.31;100.00
57708;BME280;43540;51.690;9.562;2023-06-01T03:04:02;99747.84;;;11.13;100.00
57708;BME280;43540;51.690;9.562;2023-06-01T03:06:30;99753.09;;;11.13;100.00
57708;BME280;43540;51.690;9.562;2023-06-01T03:08:58;99760.38;;;10.76;100.00
57708;BME280;43540;51.690;9.562;2023-06-01T03:11:24;99754.66;;;10.93;100.00
57708;BME280;43540;51.690;9.562;2023-06-01T03:13:51;99762.03;;;10.77;100.00
57708;BME280;43540;51.690;9.562;2023-06-01T03:16:18;99767.03;;;10.69;100.00
57708;BME280;43540;51.690;9.562;2023-06-01T03:18:44;99765.19;;;10.47;100.00
57708;BME280;43540;51.690;9.562;2023-06-01T03:21:11;99762.19;;;10.40;100.00
57708;BME280;43540;51.690;9.562;2023-06-01T03:23:41;99759.44;;;10.42;100.00
57708;BME280;43540;51.690;9.562;2023-06-01T03:26:10;99755.31;;;10.50;100.00
57708;BME280;43540;51.690;9.562;2023-06-01T03:28:40;99752.13;;;10.69;100.00
57708;BME280;43540;51.690;9.562;2023-06-01T03:31:06;99753.94;;;10.80;100.00
57708;BME280;43540;51.690;9.562;2023-06-01T03:33:34;99759.41;;;10.66;100.00
57708;BME280;43540;51.690;9.562;2023-06-01T03:36:00;99752.25;;;10.68;100.00
57708;BME280;43540;51.690;9.562;2023-06-01T03:38:28;99757.22;;;10.48;100.00
57708;BME280;43540;51.690;9.562;2023-06-01T03:40:54;99747.03;;;10.33;100.00
57708;BME280;43540;51.690;9.562;2023-06-01T03:43:21;99757.22;;;10.48;100.00
57708;BME280;43540;51.690;9.562;2023-06-01T03:45:47;99761.38;;;10.51;100.00
57708;BME280;43540;51.690;9.562;2023-06-01T03:48:14;99761.50;;;10.49;100.00
57708;BME280;43540;51.690;9.562;2023-06-01T03:50:41;99766.03;;;10.47;100.00
57708;BME280;43540;51.690;9.562;2023-06-01T03:53:07;99777.44;;;10.35;100.00
57708;BME280;43540;51.690;9.562;2023-06-01T03:55:34;99769.63;;;10.22;100.00
57708;BME280;43540;51.690;9.562;2023-06-01T03:58:02;99772.56;;;10.42;100.00
57708;BME280;43540;51.690;9.562;2023-06-01T04:00:29;99778.16;;;10.13;100.00
57708;BME280;43540;51.690;9.562;2023-06-01T04:03:00;99779.22;;;9.87;100.00
57708;BME280;43540;51.690;9.562;2023-06-01T04:05:34;99785.50;;;9.84;100.00
57708;BME280;43540;51.690;9.562;2023-06-01T04:08:02;99787.97;;;9.75;100.00
57708;BME280;43540;51.690;9.562;2023-06-01T04:10:29;99771.19;;;9.77;100.00
57708;BME280;43540;51.690;9.562;2023-06-01T04:12:56;99786.75;;;9.91;100.00
57708;BME280;43540;51.690;9.562;2023-06-01T04:15:22;99789.66;;;10.00;100.00
57708;BME280;43540;51.690;9.562;2023-06-01T04:17:49;99789.41;;;10.03;100.00
57708;BME280;43540;51.690;9.562;2023-06-01T04:20:17;99789.00;;;10.20;100.00
57708;BME280;43540;51.690;9.562;2023-06-01T04:22:45;99787.88;;;10.00;100.00
57708;BME280;43540;51.690;9.562;2023-06-01T04:25:15;99785.16;;;10.13;100.00
57708;BME280;43540;51.690;9.562;2023-06-01T04:27:47;99783.25;;;10.15;100.00
57708;BME280;43540;51.690;9.562;2023-06-01T04:30:15;99789.84;;;10.20;100.00
57708;BME280;43540;51.690;9.562;2023-06-01T04:32:43;99785.16;;;10.13;100.00
57708;BME280;43540;51.690;9.562;2023-06-01T04:35:11;99789.81;;;10.09;100.00
57708;BME280;43540;51.690;9.562;2023-06-01T04:37:39;99786.00;;;10.26;100.00
57708;BME280;43540;51.690;9.562;2023-06-01T04:40:08;99781.84;;;10.35;100.00
57708;BME280;43540;51.690;9.562;2023-06-01T04:42:40;99787.84;;;10.24;100.00
57708;BME280;43540;51.690;9.562;2023-06-01T04:45:18;99791.59;;;10.33;100.00
57708;BME280;43540;51.690;9.562;2023-06-01T04:47:45;99792.75;;;10.05;100.00
57708;BME280;43540;51.690;9.562;2023-06-01T04:50:13;99796.78;;;9.97;100.00
57708;BME280;43540;51.690;9.562;2023-06-01T04:52:42;99791.53;;;10.21;100.00
57708;BME280;43540;51.690;9.562;2023-06-01T04:55:09;99783.47;;;10.01;100.00
57708;BME280;43540;51.690;9.562;2023-06-01T04:57:36;99785.69;;;10.18;100.00
57708;BME280;43540;51.690;9.562;2023-06-01T05:00:06;99772.88;;;10.02;100.00
57708;BME280;43540;51.690;9.562;2023-06-01T05:02:40;99790.81;;;9.95;100.00
57708;BME280;43540;51.690;9.562;2023-06-01T05:05:09;99794.06;;;9.99;100.00
57708;BME280;43540;51.690;9.562;2023-06-01T05:07:36;99785.41;;;10.10;100.00
57708;BME280;43540;51.690;9.562;2023-06-01T05:10:04;99789.25;;;10.17;100.00
57708;BME280;43540;51.690;9.562;2023-06-01T05:12:33;99781.28;;;10.18;100.00
57708;BME280;43540;51.690;9.562;2023-06-01T05:15:01;99776.19;;;10.04;100.00
57708;BME280;43540;51.690;9.562;2023-06-01T05:17:28;99781.28;;;9.94;100.00
57708;BME280;43540;51.690;9.562;2023-06-01T05:19:54;99789.13;;;9.94;100.00
57708;BME280;43540;51.690;9.562;2023-06-01T05:22:22;99785.69;;;9.94;100.00
57708;BME280;43540;51.690;9.562;2023-06-01T05:24:48;99780.59;;;10.04;100.00
57708;BME280;43540;51.690;9.562;2023-06-01T05:27:16;99781.50;;;9.91;100.00
57708;BME280;43540;51.690;9.562;2023-06-01T05:29:43;99779.16;;;10.00;100.00
57708;BME280;43540;51.690;9.562;2023-06-01T05:32:09;99782.56;;;10.13;100.00
57708;BME280;43540;51.690;9.562;2023-06-01T05:34:36;99789.59;;;9.88;100.00
57708;BME280;43540;51.690;9.562;2023-06-01T05:37:03;99783.22;;;10.04;100.00
57708;BME280;43540;51.690;9.562;2023-06-01T05:39:30;99785.81;;;10.16;100.00
57708;BME280;43540;51.690;9.562;2023-06-01T05:41:57;99785.63;;;10.07;100.00
57708;BME280;43540;51.690;9.562;2023-06-01T05:44:24;99789.38;;;10.15;100.00
57708;BME280;43540;51.690;9.562;2023-06-01T05:46:51;99784.56;;;10.33;100.00
57708;BME280;43540;51.690;9.562;2023-06-01T05:49:19;99790.59;;;10.58;100.00
57708;BME280;43540;51.690;9.562;2023-06-01T05:51:46;99793.09;;;10.59;100.00
57708;BME280;43540;51.690;9.562;2023-06-01T05:54:13;99785.03;;;10.62;100.00
57708;BME280;43540;51.690;9.562;2023-06-01T05:56:39;99786.38;;;10.79;100.00
57708;BME280;43540;51.690;9.562;2023-06-01T05:59:09;99785.19;;;10.83;100.00
57708;BME280;43540;51.690;9.562;2023-06-01T06:01:36;99788.75;;;10.71;100.00
57708;BME280;43540;51.690;9.562;2023-06-01T06:04:03;99782.03;;;10.67;100.00
57708;BME280;43540;51.690;9.562;2023-06-01T06:06:30;99794.38;;;10.89;100.00
57708;BME280;43540;51.690;9.562;2023-06-01T06:08:58;99797.13;;;10.98;100.00
57708;BME280;43540;51.690;9.562;2023-06-01T06:11:25;99799.50;;;11.01;100.00
57708;BME280;43540;51.690;9.562;2023-06-01T06:13:52;99803.31;;;10.97;100.00
57708;BME280;43540;51.690;9.562;2023-06-01T06:16:19;99790.09;;;10.99;100.00
57708;BME280;43540;51.690;9.562;2023-06-01T06:18:46;99788.78;;;11.16;100.00
57708;BME280;43540;51.690;9.562;2023-06-01T06:21:13;99797.13;;;11.09;100.00
57708;BME280;43540;51.690;9.562;2023-06-01T06:23:43;99793.19;;;11.04;100.00
57708;BME280;43540;51.690;9.562;2023-06-01T06:26:11;99786.88;;;11.18;100.00
57708;BME280;43540;51.690;9.562;2023-06-01T06:28:38;99791.16;;;11.19;100.00
57708;BME280;43540;51.690;9.562;2023-06-01T06:31:05;99793.41;;;11.01;100.00
57708;BME280;43540;51.690;9.562;2023-06-01T06:33:31;99799.63;;;11.00;100.00
57708;BME280;43540;51.690;9.562;2023-06-01T06:35:58;99786.88;;;11.18;100.00
57708;BME280;43540;51.690;9.562;2023-06-01T06:38:25;99791.88;;;11.09;100.00
57708;BME280;43540;51.690;9.562;2023-06-01T06:40:51;99786.75;;;11.30;100.00
57708;BME280;43540;51.690;9.562;2023-06-01T06:43:18;99788.88;;;11.48;100.00
57708;BME280;43540;51.690;9.562;2023-06-01T06:45:45;99778.13;;;11.51;100.00
57708;BME280;43540;51.690;9.562;2023-06-01T06:48:11;99784.56;;;11.58;100.00
57708;BME280;43540;51.690;9.562;2023-06-01T06:50:38;99776.84;;;11.34;100.00
57708;BME280;43540;51.690;9.562;2023-06-01T06:53:08;99786.94;;;11.61;100.00
57708;BME280;43540;51.690;9.562;2023-06-01T06:55:34;99785.28;;;11.82;100.00
57708;BME280;43540;51.690;9.562;2023-06-01T06:58:01;99785.72;;;11.87;100.00
57708;BME280;43540;51.690;9.562;2023-06-01T07:00:28;99786.81;;;11.74;100.00
57708;BME280;43540;51.690;9.562;2023-06-01T07:02:55;99780.50;;;11.65;100.00
57708;BME280;43540;51.690;9.562;2023-06-01T07:05:22;99772.78;;;11.19;100.00
57708;BME280;43540;51.690;9.562;2023-06-01T07:07:48;99764.31;;;11.37;100.00
57708;BME280;43540;51.690;9.562;2023-06-01T07:10:15;99787.44;;;11.55;100.00
57708;BME280;43540;51.690;9.562;2023-06-01T07:12:42;99784.06;;;11.86;100.00
57708;BME280;43540;51.690;9.562;2023-06-01T07:15:09;99783.47;;;11.83;100.00
57708;BME280;43540;51.690;9.562;2023-06-01T07:17:36;99780.16;;;11.81;100.00
57708;BME280;43540;51.690;9.562;2023-06-01T07:20:03;99788.09;;;11.79;100.00
57708;BME280;43540;51.690;9.562;2023-06-01T07:22:33;99787.91;;;11.82;100.00
57708;BME280;43540;51.690;9.562;2023-06-01T07:25:00;99785.38;;;11.92;100.00
57708;BME280;43540;51.690;9.562;2023-06-01T07:27:27;99778.41;;;12.02;100.00
57708;BME280;43540;51.690;9.562;2023-06-01T07:29:54;99780.56;;;12.29;100.00
57708;BME280;43540;51.690;9.562;2023-06-01T07:32:23;99778.97;;;12.06;100.00
57708;BME280;43540;51.690;9.562;2023-06-01T07:34:50;99779.94;;;12.37;100.00
57708;BME280;43540;51.690;9.562;2023-06-01T07:37:17;99768.72;;;12.56;100.00
57708;BME280;43540;51.690;9.562;2023-06-01T07:39:48;99779.13;;;12.88;100.00
57708;BME280;43540;51.690;9.562;2023-06-01T07:42:15;99784.44;;;12.67;100.00
57708;BME280;43540;51.690;9.562;2023-06-01T07:44:42;99775.13;;;12.63;100.00
57708;BME280;43540;51.690;9.562;2023-06-01T07:47:09;99774.47;;;12.29;100.00
57708;BME280;43540;51.690;9.562;2023-06-01T07:49:36;99774.94;;;12.75;100.00
57708;BME280;43540;51.690;9.562;2023-06-01T07:52:04;99776.59;;;12.35;100.00
57708;BME280;43540;51.690;9.562;2023-06-01T07:54:33;99782.22;;;12.51;100.00
57708;BME280;43540;51.690;9.562;2023-06-01T07:57:00;99757.44;;;12.44;100.00
57708;BME280;43540;51.690;9.562;2023-06-01T07:59:30;99771.78;;;12.61;100.00
57708;BME280;43540;51.690;9.562;2023-06-01T08:01:56;99775.47;;;13.00;100.00
57708;BME280;43540;51.690;9.562;2023-06-01T08:04:23;99771.97;;;12.69;100.00
57708;BME280;43540;51.690;9.562;2023-06-01T08:06:50;99776.59;;;13.07;100.00
57708;BME280;43540;51.690;9.562;2023-06-01T08:09:20;99775.22;;;13.03;100.00
57708;BME280;43540;51.690;9.562;2023-06-01T08:11:48;99772.47;;;12.84;100.00
57708;BME280;43540;51.690;9.562;2023-06-01T08:14:15;99777.31;;;13.09;100.00
57708;BME280;43540;51.690;9.562;2023-06-01T08:16:42;99773.53;;;13.23;100.00
57708;BME280;43540;51.690;9.562;2023-06-01T08:19:09;99755.72;;;13.15;100.00
57708;BME280;43540;51.690;9.562;2023-06-01T08:21:36;99761.09;;;13.04;100.00
57708;BME280;43540;51.690;9.562;2023-06-01T08:24:03;99768.91;;;13.46;100.00
57708;BME280;43540;51.690;9.562;2023-06-01T08:26:30;99771.38;;;13.37;100.00
57708;BME280;43540;51.690;9.562;2023-06-01T08:28:56;99760.91;;;13.66;100.00
57708;BME280;43540;51.690;9.562;2023-06-01T08:31:24;99773.81;;;13.79;100.00
57708;BME280;43540;51.690;9.562;2023-06-01T08:33:52;99772.88;;;13.90;100.00
57708;BME280;43540;51.690;9.562;2023-06-01T08:36:19;99770.09;;;13.91;100.00
57708;BME280;43540;51.690;9.562;2023-06-01T08:38:48;99764.25;;;13.88;100.00
57708;BME280;43540;51.690;9.562;2023-06-01T08:41:24;99768.16;;;14.13;100.00
57708;BME280;43540;51.690;9.562;2023-06-01T08:44:02;99749.16;;;14.19;100.00
57708;BME280;43540;51.690;9.562;2023-06-01T08:46:31;99763.56;;;13.76;100.00
57708;BME280;43540;51.690;9.562;2023-06-01T08:48:59;99766.06;;;13.87;100.00
57708;BME280;43540;51.690;9.562;2023-06-01T08:51:26;99771.47;;;13.76;100.00
57708;BME280;43540;51.690;9.562;2023-06-01T08:53:54;99766.78;;;13.99;100.00
57708;BME280;43540;51.690;9.562;2023-06-01T08:56:23;99764.22;;;13.59;100.00
57708;BME280;43540;51.690;9.562;2023-06-01T08:58:50;99764.34;;;13.57;100.00
57708;BME280;43540;51.690;9.562;2023-06-01T09:01:19;99771.41;;;13.57;100.00
57708;BME280;43540;51.690;9.562;2023-06-01T09:03:51;99768.69;;;13.87;100.00
57708;BME280;43540;51.690;9.562;2023-06-01T09:06:18;99773.00;;;13.98;100.00
57708;BME280;43540;51.690;9.562;2023-06-01T09:08:45;99765.81;;;14.00;100.00
57708;BME280;43540;51.690;9.562;2023-06-01T09:11:12;99760.69;;;14.08;100.00
57708;BME280;43540;51.690;9.562;2023-06-01T09:13:40;99757.31;;;13.97;100.00
57708;BME280;43540;51.690;9.562;2023-06-01T09:16:07;99759.13;;;14.25;100.00
57708;BME280;43540;51.690;9.562;2023-06-01T09:18:34;99751.47;;;14.61;100.00
57708;BME280;43540;51.690;9.562;2023-06-01T09:21:14;99746.16;;;14.80;100.00
57708;BME280;43540;51.690;9.562;2023-06-01T09:23:44;99743.09;;;14.85;100.00
57708;BME280;43540;51.690;9.562;2023-06-01T09:26:12;99742.88;;;14.68;100.00
57708;BME280;43540;51.690;9.562;2023-06-01T09:31:38;99747.34;;;14.58;100.00
57708;BME280;43540;51.690;9.562;2023-06-01T09:34:07;99747.66;;;14.92;100.00
57708;BME280;43540;51.690;9.562;2023-06-01T09:36:35;99750.25;;;14.65;100.00
57708;BME280;43540;51.690;9.562;2023-06-01T09:39:10;99752.31;;;14.42;100.00
57708;BME280;43540;51.690;9.562;2023-06-01T09:46:51;99739.38;;;14.77;100.00
57708;BME280;43540;51.690;9.562;2023-06-01T09:49:27;99730.25;;;14.99;100.00
57708;BME280;43540;51.690;9.562;2023-06-01T09:54:37;99724.66;;;15.12;100.00
57708;BME280;43540;51.690;9.562;2023-06-01T09:57:05;99731.41;;;15.24;100.00
57708;BME280;43540;51.690;9.562;2023-06-01T09:59:45;99725.13;;;15.53;100.00
57708;BME280;43540;51.690;9.562;2023-06-01T10:02:20;99721.88;;;15.14;100.00
57708;BME280;43540;51.690;9.562;2023-06-01T10:07:17;99720.72;;;15.16;100.00
57708;BME280;43540;51.690;9.562;2023-06-01T10:09:47;99712.16;;;14.77;100.00
57708;BME280;43540;51.690;9.562;2023-06-01T10:12:14;99716.56;;;14.86;100.00
57708;BME280;43540;51.690;9.562;2023-06-01T10:14:41;99711.34;;;15.04;100.00
57708;BME280;43540;51.690;9.562;2023-06-01T10:17:11;99702.19;;;15.26;100.00
57708;BME280;43540;51.690;9.562;2023-06-01T10:19:38;99703.81;;;15.36;100.00
57708;BME280;43540;51.690;9.562;2023-06-01T10:22:05;99707.84;;;15.58;100.00
57708;BME280;43540;51.690;9.562;2023-06-01T10:24:35;99694.91;;;15.65;100.00
57708;BME280;43540;51.690;9.562;2023-06-01T10:27:19;99702.16;;;15.53;100.00
57708;BME280;43540;51.690;9.562;2023-06-01T10:29:48;99705.47;;;15.65;100.00
57708;BME280;43540;51.690;9.562;2023-06-01T10:35:07;99696.28;;;15.59;100.00
57708;BME280;43540;51.690;9.562;2023-06-01T10:37:34;99705.50;;;15.83;100.00
57708;BME280;43540;51.690;9.562;2023-06-01T10:42:47;99697.44;;;15.57;100.00
57708;BME280;43540;51.690;9.562;2023-06-01T10:45:38;99703.53;;;15.57;100.00
57708;BME280;43540;51.690;9.562;2023-06-01T10:48:07;99707.31;;;15.55;100.00
57708;BME280;43540;51.690;9.562;2023-06-01T10:50:34;99708.50;;;14.88;100.00
57708;BME280;43540;51.690;9.562;2023-06-01T11:01:43;99704.78;;;15.35;100.00
57708;BME280;43540;51.690;9.562;2023-06-01T11:04:11;99700.25;;;15.28;100.00
57708;BME280;43540;51.690;9.562;2023-06-01T11:06:40;99691.75;;;15.52;100.00
57708;BME280;43540;51.690;9.562;2023-06-01T11:09:10;99702.88;;;15.55;100.00
57708;BME280;43540;51.690;9.562;2023-06-01T11:14:20;99690.72;;;15.62;100.00
57708;BME280;43540;51.690;9.562;2023-06-01T11:16:47;99681.00;;;15.63;100.00
57708;BME280;43540;51.690;9.562;2023-06-01T11:19:19;99686.16;;;15.82;100.00
57708;BME280;43540;51.690;9.562;2023-06-01T11:21:47;99685.69;;;15.87;100.00
57708;BME280;43540;51.690;9.562;2023-06-01T11:24:15;99672.72;;;15.76;100.00
57708;BME280;43540;51.690;9.562;2023-06-01T11:26:48;99690.06;;;15.96;100.00
57708;BME280;43540;51.690;9.562;2023-06-01T11:31:47;99660.53;;;16.27;100.00
57708;BME280;43540;51.690;9.562;2023-06-01T11:34:16;99668.91;;;16.40;100.00
57708;BME280;43540;51.690;9.562;2023-06-01T11:36:46;99658.00;;;16.43;100.00
57708;BME280;43540;51.690;9.562;2023-06-01T11:39:26;99663.22;;;16.61;98.48
57708;BME280;43540;51.690;9.562;2023-06-01T11:42:12;99668.81;;;16.75;99.70
57708;BME280;43540;51.690;9.562;2023-06-01T11:44:41;99669.72;;;16.92;100.00
57708;BME280;43540;51.690;9.562;2023-06-01T11:47:09;99665.25;;;16.67;100.00
57708;BME280;43540;51.690;9.562;2023-06-01T11:49:40;99657.63;;;16.64;100.00
57708;BME280;43540;51.690;9.562;2023-06-01T11:52:09;99667.66;;;16.78;100.00
57708;BME280;43540;51.690;9.562;2023-06-01T11:54:36;99663.59;;;16.92;100.00
57708;BME280;43540;51.690;9.562;2023-06-01T11:57:04;99668.13;;;17.08;100.00
57708;BME280;43540;51.690;9.562;2023-06-01T11:59:42;99654.97;;;16.64;100.00
57708;BME280;43540;51.690;9.562;2023-06-01T12:05:01;99666.09;;;16.93;98.39
57708;BME280;43540;51.690;9.562;2023-06-01T12:10:11;99659.13;;;16.92;99.96
57708;BME280;43540;51.690;9.562;2023-06-01T12:12:41;99658.91;;;17.20;91.80
57708;BME280;43540;51.690;9.562;2023-06-01T12:15:10;99653.03;;;17.08;96.36
57708;BME280;43540;51.690;9.562;2023-06-01T12:17:51;99659.09;;;17.43;94.07
57708;BME280;43540;51.690;9.562;2023-06-01T12:20:31;99661.06;;;17.24;91.00
57708;BME280;43540;51.690;9.562;2023-06-01T12:23:00;99667.03;;;17.34;90.33
57708;BME280;43540;51.690;9.562;2023-06-01T12:25:30;99664.88;;;17.30;95.00
57708;BME280;43540;51.690;9.562;2023-06-01T12:28:01;99658.25;;;17.34;92.26
57708;BME280;43540;51.690;9.562;2023-06-01T12:30:28;99655.44;;;17.19;93.39
57708;BME280;43540;51.690;9.562;2023-06-01T12:32:54;99646.28;;;17.14;96.55
57708;BME280;43540;51.690;9.562;2023-06-01T12:35:21;99661.25;;;17.31;92.43
57708;BME280;43540;51.690;9.562;2023-06-01T12:38:09;99652.81;;;17.44;94.87
57708;BME280;43540;51.690;9.562;2023-06-01T12:40:39;99662.56;;;17.35;94.23
57708;BME280;43540;51.690;9.562;2023-06-01T12:43:17;99652.03;;;16.93;94.86
57708;BME280;43540;51.690;9.562;2023-06-01T12:45:45;99655.69;;;17.08;99.56
57708;BME280;43540;51.690;9.562;2023-06-01T12:48:35;99653.00;;;16.92;96.78
57708;BME280;43540;51.690;9.562;2023-06-01T12:51:04;99652.06;;;17.01;94.30
57708;BME280;43540;51.690;9.562;2023-06-01T12:53:31;99656.91;;;17.22;96.52
57708;BME280;43540;51.690;9.562;2023-06-01T12:55:57;99659.91;;;17.27;96.70
57708;BME280;43540;51.690;9.562;2023-06-01T12:58:26;99661.41;;;17.29;94.90
